Site:       
  Group:  
  From:      To:        
   
Sensor Name: Furnace      Latitude:-9.57320000 , Longitude:53.92290000
Please click on the Table Headers to view a Graph of the Observations.
TimeMax. Temp. (°C)Min. Temp. (°C)Mean Temp. (°C)Tot. Rain (mm)Mean Wind (kn)Max Gust (kn)Solar Rad. (J\cm2)Humidity (%)Atmos. Press. (mb)Temp. 5cm (°C)Temp. 10cm (°C)Temp. 20cm (°C)Temp. 30cm (°C)Temp. 50cm (°C)Temp. 100cm (°C)Grass Min. (°C)
16/05/2019 23:00:0010.70 10.60 10.60 0.00 6.90 11.70 0.00 88.30 1013.00 13.60 -999.00 14.90 14.60 13.30 11.60 9.70
16/05/2019 22:00:0010.80 10.60 10.70 0.10 7.60 12.30 0.00 86.40 1013.10 13.90 -999.00 15.10 14.70 13.30 11.50 9.60
16/05/2019 21:00:0010.60 10.30 10.40 0.00 6.00 9.40 0.10 91.50 1013.10 14.30 -999.00 15.40 14.80 13.30 11.50 9.70
16/05/2019 20:00:0010.60 10.40 10.50 0.80 5.60 9.20 1.70 93.20 1013.30 14.80 -999.00 15.60 14.80 13.20 11.50 9.90
16/05/2019 19:00:0010.60 10.20 10.40 1.70 4.80 10.50 4.60 92.80 1013.30 15.40 -999.00 15.80 14.80 13.20 11.50 10.00
16/05/2019 18:00:0012.30 10.40 11.30 1.60 8.50 14.10 9.10 89.50 1013.40 16.20 -999.00 15.80 14.80 13.20 11.50 10.00
16/05/2019 17:00:0015.40 12.30 13.80 0.10 6.40 14.20 16.10 66.50 1013.20 17.10 -999.00 15.80 14.70 13.20 11.50 10.90
16/05/2019 16:00:0016.60 15.40 16.00 0.00 5.40 10.20 61.20 55.80 1013.50 17.60 -999.00 15.60 14.60 13.20 11.50 16.20
16/05/2019 15:00:0016.50 16.20 16.40 0.00 5.00 10.10 81.20 56.40 1014.00 17.70 -999.00 15.40 14.40 13.20 11.50 19.20
16/05/2019 14:00:0016.70 15.80 16.20 0.00 6.60 12.00 81.40 57.50 1014.40 17.90 -999.00 15.10 14.30 13.20 11.50 18.70
16/05/2019 13:00:0016.80 16.20 16.50 0.00 7.70 14.10 149.60 56.20 1014.60 17.60 -999.00 14.70 14.10 13.20 11.50 22.40
16/05/2019 12:00:0016.40 15.60 16.00 0.00 7.10 12.00 167.80 56.20 1015.00 16.70 -999.00 14.40 14.00 13.20 11.40 23.50
16/05/2019 11:00:0015.70 14.00 14.80 0.00 2.80 7.30 142.10 60.50 1015.30 15.40 -999.00 14.20 14.00 13.20 11.40 21.60
16/05/2019 10:00:0014.20 13.00 13.60 0.00 2.70 6.50 105.90 65.00 1015.60 14.30 -999.00 14.10 14.00 13.20 11.40 17.80
16/05/2019 09:00:0013.00 11.80 12.40 0.00 4.30 8.40 66.70 65.40 1015.80 13.60 -999.00 14.20 14.10 13.20 11.40 14.90
16/05/2019 08:00:0011.80 10.80 11.30 0.00 5.00 12.30 41.80 72.00 1016.10 13.20 -999.00 14.30 14.20 13.20 11.40 11.20
16/05/2019 07:00:0010.90 10.60 10.80 0.00 6.40 13.60 17.70 74.20 1016.00 13.20 -999.00 14.50 14.30 13.20 11.40 10.90
16/05/2019 06:00:0011.00 10.60 10.80 0.00 7.30 12.90 7.10 75.40 1015.90 13.30 -999.00 14.70 14.50 13.20 11.40 10.30
16/05/2019 05:00:0011.40 11.00 11.20 0.00 6.30 11.40 0.40 76.20 1015.90 13.50 -999.00 14.90 14.60 13.20 11.40 10.30
16/05/2019 04:00:0011.60 11.30 11.50 0.00 6.10 12.70 0.00 74.80 1016.00 13.80 -999.00 15.20 14.70 13.20 11.40 10.50
16/05/2019 03:00:0012.00 11.40 11.70 0.00 5.50 10.10 0.00 74.50 1016.50 14.10 -999.00 15.40 14.90 13.20 11.40 10.50
16/05/2019 02:00:0012.60 12.00 12.30 0.00 8.10 13.70 0.00 72.10 1016.70 14.40 -999.00 15.60 15.00 13.10 11.40 11.10
16/05/2019 01:00:0013.20 12.60 12.90 0.00 10.00 16.60 0.00 67.50 1016.90 14.70 -999.00 15.90 15.10 13.10 11.40 11.70
16/05/2019 00:00:0013.90 13.20 13.60 0.00 12.70 17.00 0.00 61.80 1017.20 15.10 16.30 16.20 15.20 13.10 11.40 12.30
15/05/2019 23:00:0014.60 13.90 14.30 0.00 11.30 16.00 0.00 57.30 1017.30 15.60 -999.00 16.40 -999.00 13.00 11.40 12.90
15/05/2019 22:00:0014.90 14.50 14.70 0.00 6.30 11.50 0.00 56.50 1017.30 16.20 -999.00 16.70 -999.00 12.90 11.40 13.10